Luke Air Force Base, AZ (85309)

12:52 PM MST en Septiembre 19, 2014 (GMT -0700)
Serenity at Montecito - Estrella | Change Station
CLOSE
Current Station
Estación meteorológica personal
Location: Goodyear, AZ
Altura: 1060 ft
Estaciones meteorológicas cercanas

Alt 1060 ft 33.31 °N, 112.44 °W | Updated 51 seconds ago

Parcialmente nublado
Parcialmente nublado
93.2 ° F
Sensación térmica 99 ° F
N
2.0
Viento Variable Viento desde SO
Gusts 7.0 mph

Hoy
Alta -- | Baja -- ° F
--% Posibilidad de precipitaciones
Ayer
Alta -- | Baja -- ° F
Precip. -- pul
6:16 AM 6:30 PM
Creciente menguante, 17% visible
Presión 29.83 pul
Visibilidad 10.0 Millas
Nubes Nubes dispersas 5000 ft
Nubes dispersas 15000 ft
Índice de calor 99 ° F
Punto de rocío 69 ° F
Humedad 46%
Precipitaciones 0.00 pul
Espesor de la nieve 1 in , 0 in
UV 7.7 de una escala de 12
Polen 6.30 de una escala de 12
Calidad del aire No disponible.
Flu Activity No disponible.
METAR KGYR 191947Z 24006KT 10SM SCT050 SCT150 33/16 A2983

More Conditions Fewer Conditions

Presión 29.83 pul
Visibilidad 10.0 Millas
Nubes Nubes dispersas 5000 ft
Nubes dispersas 15000 ft
Índice de calor 99 ° F
Punto de rocío 69 ° F
Humedad 46%
Precipitaciones 0.00 pul
Espesor de la nieve 1 in , 0 in
UV 7.7 de una escala de 12
Polen 6.30 de una escala de 12
Calidad del aire No disponible.
Flu Activity No disponible.
METAR KGYR 191947Z 24006KT 10SM SCT050 SCT150 33/16 A2983

More Conditions Fewer Conditions

10-Day Weather Forecast

Almanac

Astronomía

Sep. 19, 2014 Salida Puesta
Hora real 6:16 AM MST 6:30 PM MST
Crepúsculo civil 5:51 AM MST 6:55 PM MST
Crepúsculo náutico 5:22 AM MST 7:24 PM MST
Crepúsculo astronómico 4:53 AM MST 7:53 PM MST
Luna 2:14 AM MST 3:52 PM MST
Horas de luz 13h 04m
Horas de luz
12h 14m
Tomorrow will be 2m 2s shorter.
Creciente menguante, 17% of the Moon is Illuminated
Hoy
Creciente menguante
Sep 24
Nueva
Oct 1
Cuarto creciente
Oct 8
Luna llena
Oct 15
Cuarto menguante

Extremos de hoy

Máximos del estado Bajos del estado

Community

WunderPhotos

Upload Photos

1,754,687 ¡fotos cargadas!

WunderBlogs® & News

By Dr. Jeff Masters
Director of Meteorology, Weather Underground
By Kari Strenfel
Meteorologist, Weather Underground
By Christopher C. Burt
Weather Historian, Weather Underground
September 19, 2014
September 19, 2014
September 19, 2014

Nearby

Grosos de nieve

Estación Profundido Altura
Workman Creek 1 in 6900 ft
Snowslide Canyon 0 in 9730 ft

Actividad de terremotos

Ciudad Distance Mag. Tiempo y dato
No hay informes recientes de la actividad sísmica.
Magnitud mínima muestra es 2,5.

Temperaturas de aguas costeras

Lugar Temperatura
Sin partes meteorológicos de las estaciones

Estaciones meteorológicas cercanas